Rechercher aéroport 
image banner adimage banner ad
image banner ad

EVAD - Adazi

Situé à Adazi, Latvia

ICAO - EVAD, IATA -

Données fournies par Airmate  

Information générale

Coordonnées: N57°5'55" E24°15'60"
Élévation : 8 feet MSL.
Variation magnétique : 5° East
Évalué:
Voir évaluations: [VIEW]


Voir autres Aéroports à Riga District

Données opérationnelles

Accessible au public
Heure actuelle UTC:
Heure actuelle locale:
Météo à : EVRA - Riga ( 26 km )
METAR: EVRA 210220Z VRB02KT 5000 -RA BR FEW004 BKN008 OVC047 12/12 Q1015 R18/290195 TEMPO 3000
TAF: TAF EVRA 202309Z 2100/2124 VRB02KT 9999 SCT005 SCT030 TEMPO 2100/2106 4000 -RA BR BKN005 TEMPO 2106/2108 BKN010 PROB40 TEMPO 2116/2122 0700 FG
Voir NOTAMs / SUP AIP / TFR affectant cet aéroport [VIEW]
Fréquences de communication: [VIEW]

Pistes:

Identifiant RWYQFULongueur (ft)Largeur (ft)SurfaceLDA (ft)
15155°193649ASP+GRS1667
33335°193649ASP+GRS1568

Coordonnées de l'aéroport

Adresse: Adazi Latvia

Autres services d'aviation

Écoles de pilotage

Tmg

Tmg
info@tmg-ato.com+37129259085

Clubs d'aviation (sans but lucratif)

First Fly

First Fly

Vue satellite de EVAD